Time;durP1;ratioP1;P1;durP2;ratioP2;P2;SDS_P1;SDS_P2;PMS_P1;PMS_P2;Temp;Humidity;BMP_temperature;BMP_pressure;BME280_temperature;BME280_humidity;BME280_pressure;Samples;Min_cycle;Max_cycle;Signal;HPM_P1;HPM_P2
2022/01/30 00:01:04;;;;;;;7.85;7.18;;;;;;;6.06;83.91;99547.44;4113432;28;20681;-53
2022/01/30 00:03:06;;;;;;;7.07;6.60;;;;;;;6.10;83.91;99543.28;4110742;28;20289;-53
2022/01/30 00:05:08;;;;;;;7.85;7.25;;;;;;;6.17;84.18;99550.44;4090573;28;20746;-52
2022/01/30 00:07:10;;;;;;;8.70;7.97;;;;;;;6.21;84.58;99556.31;4110144;28;20210;-53
2022/01/30 00:09:18;;;;;;;7.45;6.95;;;;;;;6.28;84.60;99557.25;4093345;28;20311;-52
2022/01/30 00:11:23;;;;;;;8.05;7.45;;;;;;;6.33;84.28;99554.75;4096034;28;20301;-53
2022/01/30 00:13:27;;;;;;;9.63;8.38;;;;;;;6.33;84.53;99550.16;4094417;28;20263;-52
2022/01/30 00:15:39;;;;;;;8.73;7.93;;;;;;;6.37;84.11;99547.91;4077591;28;20219;-52
2022/01/30 00:17:48;;;;;;;7.13;6.63;;;;;;;6.44;84.16;99546.06;4097227;28;20226;-52
2022/01/30 00:19:58;;;;;;;9.80;7.63;;;;;;;6.46;84.35;99552.13;4109297;28;20226;-52
2022/01/30 00:22:15;;;;;;;8.40;7.80;;;;;;;6.50;84.15;99545.28;4093268;28;20286;-54
2022/01/30 00:24:37;;;;;;;8.18;7.47;;;;;;;6.48;83.86;99547.34;4111666;28;20211;-52
2022/01/30 00:26:40;;;;;;;8.77;8.10;;;;;;;6.46;84.37;99549.41;4098924;28;20210;-53
2022/01/30 00:28:42;;;;;;;8.25;7.63;;;;;;;6.44;84.09;99551.50;4081660;29;20242;-52
2022/01/30 00:30:44;;;;;;;7.20;6.60;;;;;;;6.51;84.17;99546.94;4111038;28;20542;-52
2022/01/30 00:32:46;;;;;;;6.97;6.47;;;;;;;6.48;84.20;99547.34;4073874;29;20279;-53
2022/01/30 00:35:09;;;;;;;6.03;5.35;;;;;;;6.49;83.82;99543.59;4092722;28;20254;-54
2022/01/30 00:37:11;;;;;;;7.45;6.20;;;;;;;6.55;83.79;99548.22;4102691;28;20282;-52
2022/01/30 00:39:12;;;;;;;5.88;5.38;;;;;;;6.50;83.88;99547.97;4107723;28;20234;-52
2022/01/30 00:41:14;;;;;;;6.28;5.78;;;;;;;6.46;83.74;99550.25;4092461;28;20314;-53
2022/01/30 00:43:17;;;;;;;5.90;5.40;;;;;;;6.45;84.15;99555.88;4114677;28;20231;-52
2022/01/30 00:45:19;;;;;;;5.55;5.05;;;;;;;6.37;84.08;99550.59;4096655;28;20222;-53
2022/01/30 00:47:21;;;;;;;5.25;4.85;;;;;;;6.30;83.34;99560.59;4109451;28;20704;-53
2022/01/30 00:49:23;;;;;;;8.23;5.05;;;;;;;6.38;83.69;99552.28;4093126;28;20649;-53
2022/01/30 00:51:24;;;;;;;6.25;5.65;;;;;;;6.33;83.81;99552.88;4089261;28;20219;-51
2022/01/30 00:53:26;;;;;;;5.47;5.00;;;;;;;6.29;83.77;99558.91;4094048;28;20230;-53
2022/01/30 00:55:29;;;;;;;6.40;4.88;;;;;;;6.38;83.84;99546.84;4107089;28;20218;-53
2022/01/30 00:57:30;;;;;;;5.85;4.32;;;;;;;6.31;83.28;99551.41;4109649;28;20210;-52
2022/01/30 00:59:32;;;;;;;6.13;5.45;;;;;;;6.28;83.48;99538.22;4107842;28;20520;-53
2022/01/30 01:01:34;;;;;;;5.60;4.97;;;;;;;6.26;83.83;99543.00;4107935;28;20508;-53
2022/01/30 01:03:36;;;;;;;5.78;5.22;;;;;;;6.24;83.68;99540.47;4091600;28;20610;-51
2022/01/30 01:05:38;;;;;;;5.53;5.10;;;;;;;6.29;83.49;99531.75;4112842;28;20301;-51
2022/01/30 01:07:46;;;;;;;7.00;6.40;;;;;;;6.30;84.08;99527.97;4117058;28;20202;-52
2022/01/30 01:09:58;;;;;;;5.50;5.10;;;;;;;6.24;83.66;99529.59;4093348;28;20243;-52
2022/01/30 01:23:42;;;;;;;7.18;6.47;;;;;;;6.11;84.21;99566.69;4093020;28;20696;-51
2022/01/30 01:25:44;;;;;;;8.70;6.05;;;;;;;6.20;83.87;99568.22;4109267;28;20217;-51
2022/01/30 01:27:46;;;;;;;6.90;6.30;;;;;;;6.25;83.60;99579.38;4077079;29;20236;-51
2022/01/30 01:29:47;;;;;;;6.47;5.95;;;;;;;6.18;83.82;99578.47;4107450;28;20753;-52
2022/01/30 01:31:49;;;;;;;11.38;6.72;;;;;;;6.19;84.40;99577.44;4092693;28;20637;-52
2022/01/30 01:36:03;;;;;;;6.53;5.97;;;;;;;6.22;83.73;99586.03;4095506;28;20724;-54
2022/01/30 01:38:10;;;;;;;7.38;5.45;;;;;;;6.23;83.82;99576.00;4093345;28;20332;-53
2022/01/30 01:40:11;;;;;;;7.25;4.50;;;;;;;6.17;83.62;99582.22;4077292;28;20697;-52
2022/01/30 01:42:15;;;;;;;8.00;4.63;;;;;;;6.26;82.83;99583.75;4093361;28;20235;-52
2022/01/30 01:44:20;;;;;;;10.57;5.97;;;;;;;6.19;82.99;99586.44;4105041;28;20238;-52
2022/01/30 01:46:27;;;;;;;10.63;4.50;;;;;;;6.26;82.34;99583.75;4107954;28;20254;-52
2022/01/30 01:48:34;;;;;;;5.03;4.50;;;;;;;6.20;82.69;99584.53;4092883;28;20234;-52
2022/01/30 01:50:39;;;;;;;5.22;4.05;;;;;;;6.10;82.44;99595.75;4095848;28;20585;-52
2022/01/30 01:52:41;;;;;;;5.75;4.57;;;;;;;6.18;82.49;99605.66;4110728;28;20261;-52
2022/01/30 01:54:47;;;;;;;5.60;4.50;;;;;;;6.08;82.80;99597.81;4113482;28;20236;-51
2022/01/30 01:56:48;;;;;;;10.40;5.32;;;;;;;5.96;82.26;99606.69;4094059;28;20709;-52
2022/01/30 01:58:50;;;;;;;9.18;4.85;;;;;;;5.95;82.34;99603.13;4074835;29;20236;-52
2022/01/30 02:00:52;;;;;;;9.82;3.53;;;;;;;5.92;82.64;99602.69;4104761;28;20207;-53
2022/01/30 02:02:55;;;;;;;5.80;4.63;;;;;;;5.90;82.17;99585.75;4084764;28;20349;-53
2022/01/30 02:04:59;;;;;;;10.30;4.70;;;;;;;5.82;81.88;99583.16;4089642;28;20258;-54
2022/01/30 02:09:28;;;;;;;8.43;4.63;;;;;;;5.77;82.13;99596.44;4094845;28;20826;-52
2022/01/30 02:27:35;;;;;;;9.90;5.35;;;;;;;5.83;81.41;99590.28;4091414;28;20650;-54
2022/01/30 02:29:36;;;;;;;9.30;4.00;;;;;;;5.88;81.17;99593.25;4092952;28;20634;-53
2022/01/30 02:31:40;;;;;;;20.00;4.78;;;;;;;5.86;81.34;99595.31;4109511;28;20246;-53
2022/01/30 02:33:44;;;;;;;20.30;4.30;;;;;;;5.78;81.89;99587.25;4106923;28;20631;-54
2022/01/30 02:35:45;;;;;;;12.88;4.03;;;;;;;5.80;81.69;99585.22;4093642;28;20250;-53
2022/01/30 02:37:51;;;;;;;9.32;3.85;;;;;;;5.82;80.69;99591.31;4077113;29;20619;-52
2022/01/30 02:39:53;;;;;;;10.35;4.50;;;;;;;5.86;80.00;99587.16;4105026;28;20226;-52
2022/01/30 02:41:55;;;;;;;10.43;4.25;;;;;;;5.89;79.40;99600.38;4091746;28;20908;-59
2022/01/30 02:44:22;;;;;;;18.10;5.40;;;;;;;5.85;79.16;99604.50;4111331;28;20206;-53
2022/01/30 02:46:31;;;;;;;13.50;3.80;;;;;;;5.90;78.51;99597.44;4095458;28;20238;-52
2022/01/30 02:48:54;;;;;;;17.77;5.32;;;;;;;5.92;78.79;99603.53;4091053;28;20242;-52
2022/01/30 02:51:08;;;;;;;10.18;3.40;;;;;;;5.85;78.96;99599.06;4110959;28;20218;-52
2022/01/30 02:53:10;;;;;;;9.13;4.38;;;;;;;5.82;79.12;99591.31;4108527;28;20269;-52
2022/01/30 02:55:12;;;;;;;9.05;4.10;;;;;;;5.73;79.05;99595.13;4104934;28;20207;-52
2022/01/30 02:57:14;;;;;;;11.00;3.85;;;;;;;5.77;77.96;99597.25;4109166;28;20238;-53
2022/01/30 02:59:16;;;;;;;15.93;5.93;;;;;;;5.68;78.08;99603.84;4111378;28;20245;-53
2022/01/30 03:01:21;;;;;;;13.05;4.25;;;;;;;5.57;78.65;99601.63;4093804;28;20219;-54
2022/01/30 03:03:23;;;;;;;17.98;3.13;;;;;;;5.56;78.01;99605.38;4092443;28;20258;-54
2022/01/30 03:05:25;;;;;;;12.02;3.63;;;;;;;5.53;78.23;99594.94;4078045;29;20271;-54
2022/01/30 03:07:26;;;;;;;17.73;4.05;;;;;;;5.39;78.25;99592.25;4090259;28;20347;-52
2022/01/30 03:09:28;;;;;;;12.57;3.58;;;;;;;5.46;77.41;99593.16;4110252;28;20275;-52
2022/01/30 03:11:30;;;;;;;9.00;3.85;;;;;;;5.46;77.25;99585.03;4111267;28;20238;-52
2022/01/30 03:13:31;;;;;;;10.50;4.32;;;;;;;5.49;76.24;99587.38;4097719;28;20275;-54
2022/01/30 03:15:35;;;;;;;14.15;3.40;;;;;;;5.48;76.72;99591.94;4095730;28;20207;-53
2022/01/30 03:17:36;;;;;;;13.02;3.70;;;;;;;5.53;75.65;99588.66;4111165;28;20199;-52
2022/01/30 03:19:38;;;;;;;9.30;3.05;;;;;;;5.49;75.97;99581.94;4112622;28;20455;-54
2022/01/30 03:21:40;;;;;;;9.82;3.13;;;;;;;5.65;73.96;99578.97;4111275;28;20206;-53
2022/01/30 03:23:42;;;;;;;12.10;3.47;;;;;;;5.62;74.67;99592.94;4094376;28;20218;-52
2022/01/30 03:25:44;;;;;;;9.73;3.88;;;;;;;5.62;74.66;99609.22;4095974;28;20262;-52
2022/01/30 03:27:51;;;;;;;15.98;4.55;;;;;;;5.51;75.25;99624.16;4095007;28;20290;-52
2022/01/30 03:30:03;;;;;;;10.57;3.67;;;;;;;5.49;75.58;99622.66;4104836;28;20226;-53
2022/01/30 03:32:05;;;;;;;12.93;4.18;;;;;;;5.45;75.71;99624.06;4110607;28;20250;-54
2022/01/30 03:34:11;;;;;;;11.50;3.80;;;;;;;5.47;75.71;99624.69;4094586;28;20957;-52
2022/01/30 03:36:13;;;;;;;18.90;4.15;;;;;;;5.42;75.86;99630.69;4102771;28;20238;-54
2022/01/30 03:38:15;;;;;;;10.13;3.38;;;;;;;5.54;75.25;99633.75;4104699;28;21286;-54
2022/01/30 03:40:17;;;;;;;13.00;4.43;;;;;;;5.54;75.06;99636.47;4106876;28;20207;-53
2022/01/30 03:42:19;;;;;;;14.45;3.97;;;;;;;5.49;74.90;99639.75;4089768;28;20266;-52
2022/01/30 03:44:20;;;;;;;11.55;5.13;;;;;;;5.49;75.38;99647.91;4112132;28;20288;-52
2022/01/30 03:46:23;;;;;;;20.10;6.35;;;;;;;5.56;74.89;99648.00;4113381;28;20218;-52
2022/01/30 03:48:45;;;;;;;12.93;4.10;;;;;;;5.57;75.12;99646.97;4105696;28;20253;-52
2022/01/30 03:50:47;;;;;;;20.33;5.28;;;;;;;5.59;75.26;99653.03;4109336;28;20214;-53
2022/01/30 03:52:48;;;;;;;16.67;4.30;;;;;;;5.65;74.90;99646.84;4106835;28;20720;-54
2022/01/30 03:54:50;;;;;;;8.55;4.13;;;;;;;5.62;75.69;99658.94;4109616;28;20704;-54
2022/01/30 03:56:52;;;;;;;10.00;4.70;;;;;;;5.58;75.84;99648.66;4092051;28;20302;-54
2022/01/30 03:58:54;;;;;;;14.80;4.65;;;;;;;5.48;75.95;99662.50;4095656;28;20239;-54
2022/01/30 04:00:55;;;;;;;19.88;4.82;;;;;;;5.38;76.46;99655.69;4080407;29;20208;-53
2022/01/30 04:02:57;;;;;;;16.60;5.20;;;;;;;5.43;76.70;99659.50;4095606;28;20234;-54
2022/01/30 04:04:59;;;;;;;10.68;4.57;;;;;;;5.42;76.83;99659.72;4095344;28;20218;-53
2022/01/30 04:07:01;;;;;;;10.18;5.00;;;;;;;5.30;77.29;99661.25;4106639;28;20650;-53
2022/01/30 04:09:05;;;;;;;14.35;4.75;;;;;;;5.27;77.46;99659.75;4094697;28;20293;-52
2022/01/30 04:11:07;;;;;;;14.07;4.85;;;;;;;5.23;77.48;99668.44;4109400;28;20233;-53
2022/01/30 04:13:09;;;;;;;9.38;3.92;;;;;;;5.25;77.95;99652.81;4097021;28;20281;-52
2022/01/30 04:15:11;;;;;;;8.82;3.65;;;;;;;5.24;77.94;99659.28;4094351;28;20307;-53
2022/01/30 04:17:13;;;;;;;8.15;4.28;;;;;;;5.26;77.42;99668.06;4113746;28;20215;-54
2022/01/30 04:19:15;;;;;;;16.27;3.90;;;;;;;5.22;77.51;99664.88;4093856;28;20701;-54
2022/01/30 04:21:17;;;;;;;17.00;4.68;;;;;;;5.22;77.31;99673.03;4107143;28;20226;-53
2022/01/30 04:23:19;;;;;;;5.75;3.55;;;;;;;5.24;77.36;99675.56;4092964;28;20245;-52
2022/01/30 04:25:21;;;;;;;12.90;4.32;;;;;;;5.21;77.65;99670.50;4095106;28;20211;-54
2022/01/30 04:27:23;;;;;;;6.20;3.33;;;;;;;5.16;77.93;99672.94;4108726;28;20532;-52
2022/01/30 04:29:25;;;;;;;14.15;3.90;;;;;;;5.17;77.17;99678.16;4094481;28;20207;-53
2022/01/30 04:31:27;;;;;;;13.23;4.13;;;;;;;5.18;77.06;99684.44;4096900;28;20258;-52
2022/01/30 04:33:29;;;;;;;13.68;4.32;;;;;;;5.19;76.89;99677.97;4091136;28;20232;-52
2022/01/30 04:35:31;;;;;;;15.95;4.00;;;;;;;5.21;76.64;99682.19;4092354;28;20231;-53
2022/01/30 04:38:24;;;;;;;12.23;3.65;;;;;;;5.24;76.77;99686.41;4091653;28;20659;-53
2022/01/30 05:01:23;;;;;;;10.70;3.38;;;;;;;5.16;74.04;99690.03;4097594;28;20741;-53
2022/01/30 05:03:41;;;;;;;9.45;2.78;;;;;;;5.11;74.17;99686.22;4091743;28;20258;-52
2022/01/30 05:08:02;;;;;;;8.90;3.55;;;;;;;5.10;73.50;99696.22;4093314;28;20204;-54
2022/01/30 05:10:05;;;;;;;7.88;2.53;;;;;;;5.11;73.14;99691.66;4111162;28;20241;-54
2022/01/30 05:12:08;;;;;;;9.73;3.88;;;;;;;5.09;72.46;99694.53;4109851;28;20689;-53
2022/01/30 05:14:13;;;;;;;16.55;3.53;;;;;;;5.02;72.85;99698.19;4095107;28;20259;-52
2022/01/30 05:16:16;;;;;;;10.02;3.65;;;;;;;5.04;73.57;99690.72;4090058;28;20253;-54
2022/01/30 05:18:21;;;;;;;15.70;3.40;;;;;;;5.02;72.32;99694.63;4095055;28;20225;-54
2022/01/30 05:20:23;;;;;;;10.20;3.88;;;;;;;4.97;72.72;99696.03;4111545;28;20257;-52
2022/01/30 05:22:25;;;;;;;8.98;2.60;;;;;;;5.03;72.92;99693.59;4110923;28;20697;-53
2022/01/30 05:24:27;;;;;;;13.43;3.85;;;;;;;4.94;71.81;99700.97;4097721;28;20234;-52
2022/01/30 05:26:29;;;;;;;17.15;3.67;;;;;;;4.88;72.48;99704.41;4108712;28;20205;-52
2022/01/30 05:28:31;;;;;;;8.95;3.20;;;;;;;4.94;73.05;99703.69;4075589;29;20295;-52
2022/01/30 05:30:36;;;;;;;9.02;3.17;;;;;;;4.94;72.72;99711.81;4089160;28;20234;-52
2022/01/30 05:32:38;;;;;;;8.48;4.18;;;;;;;4.88;72.64;99717.16;4106443;28;20239;-51
2022/01/30 05:34:40;;;;;;;8.55;4.28;;;;;;;4.86;72.23;99730.88;4109412;28;20238;-51
2022/01/30 05:36:43;;;;;;;7.20;3.13;;;;;;;4.76;72.39;99727.63;4090325;28;20211;-52
2022/01/30 05:38:46;;;;;;;11.93;4.47;;;;;;;4.82;73.62;99732.31;4091762;28;20354;-54
2022/01/30 05:40:48;;;;;;;7.20;3.08;;;;;;;4.74;72.97;99724.22;4112359;28;20726;-53
2022/01/30 05:42:50;;;;;;;8.30;3.15;;;;;;;4.73;74.11;99736.09;4109520;28;21559;-54
2022/01/30 05:45:10;;;;;;;10.80;3.50;;;;;;;4.77;73.73;99733.84;4091301;28;20222;-52
2022/01/30 05:47:20;;;;;;;10.75;3.05;;;;;;;4.77;73.77;99734.72;4106639;28;20239;-53
2022/01/30 05:49:24;;;;;;;9.85;3.95;;;;;;;4.68;73.73;99733.09;4092395;28;20300;-52
2022/01/30 05:51:25;;;;;;;8.80;3.97;;;;;;;4.69;74.50;99737.50;4091922;28;20776;-51
2022/01/30 05:53:27;;;;;;;8.50;3.30;;;;;;;4.66;74.85;99745.16;4088615;28;20705;-51
2022/01/30 05:55:31;;;;;;;8.90;3.88;;;;;;;4.74;74.99;99750.50;4106710;28;20214;-52
2022/01/30 05:57:33;;;;;;;9.60;4.07;;;;;;;4.60;73.19;99751.31;4093018;28;20349;-53
2022/01/30 05:59:34;;;;;;;5.95;4.10;;;;;;;4.59;74.78;99755.88;4093773;28;20235;-54
2022/01/30 06:01:36;;;;;;;8.02;3.78;;;;;;;4.52;74.65;99754.91;4109393;28;20231;-52
2022/01/30 06:03:38;;;;;;;7.72;3.17;;;;;;;4.62;74.16;99752.81;4091817;28;20294;-52
2022/01/30 06:05:40;;;;;;;11.40;3.60;;;;;;;4.50;74.02;99756.97;4097311;28;20258;-52
2022/01/30 06:07:49;;;;;;;13.55;3.78;;;;;;;4.47;73.82;99768.16;4099341;28;20597;-52
2022/01/30 06:09:51;;;;;;;10.70;3.95;;;;;;;4.55;74.06;99772.69;4113446;28;20237;-52
2022/01/30 06:11:53;;;;;;;13.13;3.53;;;;;;;4.41;73.80;99790.56;4096481;28;20203;-53
2022/01/30 06:13:55;;;;;;;9.98;3.53;;;;;;;4.37;73.56;99783.81;4098039;28;20320;-52
2022/01/30 06:15:57;;;;;;;10.13;3.75;;;;;;;4.55;74.75;99792.50;4092356;28;20237;-52
2022/01/30 06:17:59;;;;;;;5.70;3.13;;;;;;;4.51;75.14;99785.75;4073645;29;20241;-52
2022/01/30 06:20:01;;;;;;;16.50;3.50;;;;;;;4.22;74.27;99796.47;4092813;28;20208;-53
2022/01/30 06:22:03;;;;;;;10.05;2.78;;;;;;;4.40;74.19;99794.28;4106980;28;20253;-52
2022/01/30 06:24:05;;;;;;;6.07;2.72;;;;;;;4.19;74.05;99796.81;4092834;28;20215;-54
2022/01/30 06:26:07;;;;;;;10.90;3.40;;;;;;;4.30;75.03;99793.69;4110100;28;20241;-52
2022/01/30 06:28:09;;;;;;;12.90;3.22;;;;;;;4.37;75.16;99794.66;4092250;28;20207;-53
2022/01/30 06:30:11;;;;;;;8.05;3.05;;;;;;;4.46;75.10;99795.47;4109344;28;20297;-54
2022/01/30 06:32:15;;;;;;;17.52;3.20;;;;;;;4.27;74.43;99798.63;4090067;28;20235;-53
2022/01/30 06:34:17;;;;;;;12.00;4.22;;;;;;;4.10;75.36;99797.88;4107752;28;20310;-53
2022/01/30 06:36:19;;;;;;;9.27;3.33;;;;;;;4.08;76.17;99794.47;4089614;28;20239;-54
2022/01/30 06:38:20;;;;;;;10.13;3.28;;;;;;;4.01;76.42;99804.34;4093459;28;20677;-53
2022/01/30 06:40:22;;;;;;;11.98;4.63;;;;;;;4.00;77.17;99821.63;4094290;28;20222;-52
2022/01/30 06:42:24;;;;;;;13.73;3.90;;;;;;;3.98;77.31;99823.66;4108772;28;20230;-54
2022/01/30 06:44:26;;;;;;;7.35;3.65;;;;;;;3.99;77.82;99828.06;4093122;28;20216;-53
2022/01/30 06:46:28;;;;;;;9.40;3.42;;;;;;;3.99;77.97;99822.63;4093119;28;20238;-53
2022/01/30 06:48:30;;;;;;;6.00;3.25;;;;;;;3.97;78.08;99829.25;4090214;28;20242;-52
2022/01/30 06:50:31;;;;;;;15.02;4.28;;;;;;;3.95;78.11;99836.72;4108757;28;20214;-53
2022/01/30 06:52:33;;;;;;;18.58;3.60;;;;;;;3.94;78.42;99846.69;4093029;28;20305;-52
2022/01/30 06:54:35;;;;;;;6.18;3.58;;;;;;;3.91;78.66;99847.06;4112312;28;20752;-53
2022/01/30 06:56:36;;;;;;;9.98;4.40;;;;;;;3.87;78.22;99845.69;4095141;28;20729;-52
2022/01/30 06:58:38;;;;;;;14.48;5.88;;;;;;;3.85;78.61;99842.34;4108145;28;20817;-52
2022/01/30 07:00:40;;;;;;;9.70;3.63;;;;;;;3.87;78.25;99850.28;4110797;28;20747;-53
2022/01/30 07:02:42;;;;;;;6.95;4.03;;;;;;;3.82;78.59;99853.53;4113311;28;20234;-52
2022/01/30 07:04:44;;;;;;;9.27;4.78;;;;;;;3.73;78.79;99843.72;4095786;28;20295;-52
2022/01/30 07:06:46;;;;;;;14.43;5.85;;;;;;;3.68;78.56;99839.88;4109702;28;20229;-52
2022/01/30 07:08:48;;;;;;;22.30;13.95;;;;;;;3.96;77.61;99843.81;4098092;28;20231;-54
2022/01/30 07:10:50;;;;;;;44.83;21.70;;;;;;;3.76;77.81;99851.50;4111102;28;20206;-53
2022/01/30 07:12:52;;;;;;;19.38;11.40;;;;;;;3.62;75.63;99854.94;4113016;28;20226;-53
2022/01/30 07:14:54;;;;;;;24.92;14.98;;;;;;;3.73;76.95;99851.03;4112792;28;20776;-52
2022/01/30 07:16:55;;;;;;;25.75;8.50;;;;;;;3.74;75.02;99855.41;4092511;28;20676;-52
2022/01/30 07:18:58;;;;;;;14.98;9.10;;;;;;;3.76;74.90;99859.63;4095076;28;20219;-54
2022/01/30 07:20:59;;;;;;;10.70;5.47;;;;;;;3.79;75.77;99863.81;4097155;28;20203;-52
2022/01/30 07:23:01;;;;;;;14.50;4.03;;;;;;;3.82;72.18;99861.66;4095377;28;21488;-53
2022/01/30 07:25:05;;;;;;;13.63;4.38;;;;;;;3.82;73.54;99866.22;4094973;28;20238;-52
2022/01/30 07:27:07;;;;;;;17.35;4.85;;;;;;;3.82;73.80;99867.06;4093218;28;20286;-52
2022/01/30 07:29:08;;;;;;;8.57;4.07;;;;;;;3.91;69.93;99863.28;4095615;28;20294;-53
2022/01/30 07:31:10;;;;;;;11.82;4.63;;;;;;;3.89;69.94;99876.19;4112973;28;20249;-52
2022/01/30 07:33:12;;;;;;;7.97;3.63;;;;;;;3.95;71.21;99867.31;4099885;28;20231;-53
2022/01/30 07:35:14;;;;;;;8.13;3.35;;;;;;;3.99;72.34;99876.78;4114858;28;20747;-52
2022/01/30 07:37:16;;;;;;;7.15;3.22;;;;;;;3.96;70.20;99873.59;4106128;28;20514;-52
2022/01/30 07:39:17;;;;;;;8.02;3.15;;;;;;;4.10;71.44;99881.84;4100164;28;20238;-51
2022/01/30 07:41:20;;;;;;;15.43;4.53;;;;;;;4.08;70.28;99878.44;4117138;28;20261;-52
2022/01/30 07:43:22;;;;;;;8.02;3.72;;;;;;;4.03;70.84;99877.28;4113889;28;20605;-53
2022/01/30 07:45:25;;;;;;;15.35;3.72;;;;;;;3.99;71.42;99874.09;4113631;28;20685;-53
2022/01/30 07:47:27;;;;;;;13.55;3.33;;;;;;;4.11;71.64;99886.22;4092660;28;20752;-54
2022/01/30 07:49:28;;;;;;;5.28;2.60;;;;;;;4.08;70.89;99888.44;4094138;28;20634;-54
2022/01/30 07:51:30;;;;;;;8.60;4.28;;;;;;;4.14;69.79;99885.88;4112504;28;20619;-52
2022/01/30 07:53:32;;;;;;;5.90;3.25;;;;;;;4.18;69.13;99891.78;4098619;28;20291;-54
2022/01/30 07:55:33;;;;;;;9.02;3.92;;;;;;;4.21;69.58;99892.28;4097988;28;20314;-53
2022/01/30 07:57:35;;;;;;;6.35;2.97;;;;;;;4.25;68.20;99887.34;4108831;28;20528;-52
2022/01/30 07:59:37;;;;;;;10.90;5.18;;;;;;;4.23;70.14;99897.53;4111888;28;20826;-55
2022/01/30 08:01:39;;;;;;;8.48;3.17;;;;;;;4.23;69.28;99900.22;4110325;28;20241;-52
2022/01/30 08:03:41;;;;;;;8.23;3.08;;;;;;;4.30;66.92;99904.78;4106670;28;20235;-53
2022/01/30 08:05:43;;;;;;;7.88;3.38;;;;;;;4.41;66.70;99904.38;4094056;28;20653;-54
2022/01/30 08:07:44;;;;;;;11.07;3.10;;;;;;;4.40;66.21;99897.25;4110584;28;20211;-54
2022/01/30 08:09:46;;;;;;;8.45;3.85;;;;;;;4.37;66.61;99903.06;4094984;28;20238;-53
2022/01/30 08:11:48;;;;;;;8.18;3.05;;;;;;;4.36;67.44;99917.63;4092812;28;20262;-55
2022/01/30 08:13:49;;;;;;;10.70;4.43;;;;;;;4.44;66.93;99914.00;4114768;28;20285;-54
2022/01/30 08:15:51;;;;;;;9.82;3.80;;;;;;;4.35;67.54;99915.91;4088484;28;20361;-53
2022/01/30 08:17:53;;;;;;;10.63;5.22;;;;;;;4.33;68.37;99919.84;4110787;28;20656;-54
2022/01/30 08:19:55;;;;;;;9.07;3.88;;;;;;;4.29;69.54;99915.78;4093686;28;20245;-53
2022/01/30 08:22:00;;;;;;;11.75;3.95;;;;;;;4.32;68.86;99910.84;4111385;28;20815;-54
2022/01/30 08:24:01;;;;;;;9.98;4.15;;;;;;;4.31;69.19;99914.59;4110915;28;20215;-54
2022/01/30 08:26:03;;;;;;;11.35;4.20;;;;;;;4.39;69.09;99909.13;4097489;28;20308;-52
2022/01/30 08:28:06;;;;;;;7.55;3.08;;;;;;;4.34;70.33;99910.69;4094023;28;20686;-54
2022/01/30 08:30:08;;;;;;;7.03;2.88;;;;;;;4.33;69.97;99911.72;4091520;28;20208;-54
2022/01/30 08:32:11;;;;;;;13.95;4.05;;;;;;;4.31;70.46;99911.88;4092013;28;20969;-55
2022/01/30 08:34:13;;;;;;;7.88;3.75;;;;;;;4.39;71.06;99911.84;4112374;28;20206;-53
2022/01/30 08:36:15;;;;;;;5.90;3.17;;;;;;;4.50;70.37;99921.44;4095583;28;20239;-53
2022/01/30 08:38:18;;;;;;;7.03;3.60;;;;;;;4.62;70.58;99917.31;4093700;28;20333;-52
2022/01/30 08:40:21;;;;;;;12.35;3.33;;;;;;;4.53;69.62;99919.22;4109498;28;20602;-52
2022/01/30 08:42:23;;;;;;;7.85;4.32;;;;;;;4.46;69.70;99929.06;4094139;28;20634;-53
2022/01/30 08:44:24;;;;;;;16.67;4.13;;;;;;;4.50;70.34;99925.00;4096269;28;20246;-53
2022/01/30 08:46:26;;;;;;;8.38;3.97;;;;;;;4.51;70.71;99926.69;4095328;28;20253;-52
2022/01/30 08:48:30;;;;;;;16.63;4.57;;;;;;;4.47;70.95;99928.03;4111691;28;20213;-53
2022/01/30 08:50:32;;;;;;;19.05;4.00;;;;;;;4.44;71.79;99924.84;4110559;28;20274;-55
2022/01/30 08:52:34;;;;;;;10.43;6.13;;;;;;;4.41;71.78;99934.16;4093454;28;20227;-53
2022/01/30 08:54:36;;;;;;;16.77;3.47;;;;;;;4.47;72.23;99936.19;4110916;28;20726;-52
2022/01/30 08:56:37;;;;;;;10.95;3.38;;;;;;;4.48;71.38;99937.84;4113483;28;20210;-54
2022/01/30 08:58:39;;;;;;;9.23;2.95;;;;;;;4.45;72.34;99937.38;4097816;28;20370;-58
2022/01/30 09:00:42;;;;;;;14.43;3.47;;;;;;;4.50;72.38;99941.25;4096802;28;20729;-57
2022/01/30 09:02:44;;;;;;;8.85;3.28;;;;;;;4.48;71.79;99937.84;4103386;28;20720;-56
2022/01/30 09:04:46;;;;;;;9.60;3.38;;;;;;;4.57;71.69;99928.69;4101047;28;20207;-57
2022/01/30 09:06:48;;;;;;;8.43;3.72;;;;;;;4.68;71.20;99933.69;4098635;28;20602;-55
2022/01/30 09:08:50;;;;;;;10.32;4.88;;;;;;;4.89;70.64;99920.38;4112928;28;20211;-56
2022/01/30 09:10:52;;;;;;;16.58;3.72;;;;;;;5.45;70.07;99933.47;4113806;28;20211;-56
2022/01/30 09:12:53;;;;;;;10.00;5.43;;;;;;;5.74;69.39;99938.97;4097236;28;20787;-57
2022/01/30 09:14:55;;;;;;;12.75;3.05;;;;;;;6.49;65.78;99935.13;4098573;28;20250;-58
2022/01/30 09:16:57;;;;;;;7.28;3.38;;;;;;;7.01;64.81;99941.16;4110203;28;20226;-56
2022/01/30 09:19:12;;;;;;;9.05;3.38;;;;;;;7.74;65.48;99952.56;4098706;28;20219;-56
2022/01/30 09:21:14;;;;;;;6.20;2.53;;;;;;;7.34;60.85;99943.22;4115652;28;20215;-58
2022/01/30 09:23:16;;;;;;;6.88;2.92;;;;;;;7.03;62.94;99934.50;4108125;28;20725;-56
2022/01/30 09:25:19;;;;;;;4.90;2.63;;;;;;;6.88;62.24;99943.75;4094980;28;20207;-56
2022/01/30 09:27:20;;;;;;;15.88;3.22;;;;;;;7.07;64.43;99940.41;4098194;28;20211;-57
2022/01/30 09:29:22;;;;;;;10.57;3.35;;;;;;;7.24;61.69;99931.81;4100846;28;20220;-58
2022/01/30 09:31:32;;;;;;;8.18;3.10;;;;;;;7.53;62.88;99930.81;4109611;28;20711;-57
2022/01/30 09:33:34;;;;;;;8.95;3.22;;;;;;;7.59;63.47;99949.09;4094794;28;20227;-56
2022/01/30 09:35:36;;;;;;;9.07;3.85;;;;;;;7.62;61.47;99937.81;4109568;28;20270;-56
2022/01/30 09:37:38;;;;;;;9.05;3.38;;;;;;;7.19;62.24;99938.84;4100008;28;20326;-56
2022/01/30 09:39:40;;;;;;;13.23;3.63;;;;;;;6.97;62.93;99937.16;4111931;28;20202;-57
2022/01/30 09:41:43;;;;;;;8.77;3.38;;;;;;;6.88;64.23;99935.59;4094145;28;20235;-59
2022/01/30 09:43:46;;;;;;;9.82;3.95;;;;;;;6.85;65.22;99941.41;4077636;29;20602;-58
2022/01/30 09:45:48;;;;;;;5.00;3.05;;;;;;;6.73;64.70;99934.78;4112454;28;20211;-56
2022/01/30 09:47:54;;;;;;;13.38;3.40;;;;;;;6.73;65.13;99934.78;4096790;28;20212;-57
2022/01/30 09:49:58;;;;;;;7.75;2.70;;;;;;;6.68;64.50;99929.91;4094333;28;20219;-56
2022/01/30 09:52:00;;;;;;;17.08;3.70;;;;;;;6.51;65.06;99931.19;4097110;28;20231;-57
2022/01/30 09:54:03;;;;;;;8.57;3.65;;;;;;;6.37;66.08;99932.00;4096707;28;20215;-58
2022/01/30 09:56:06;;;;;;;12.70;4.18;;;;;;;6.35;65.78;99938.69;4098143;28;20231;-56
2022/01/30 09:58:08;;;;;;;6.38;3.70;;;;;;;6.23;66.05;99924.72;4094968;28;20214;-56
2022/01/30 10:00:11;;;;;;;15.43;4.53;;;;;;;6.29;66.49;99928.56;4110749;28;20210;-56
2022/01/30 10:02:13;;;;;;;12.10;3.38;;;;;;;6.34;66.63;99936.97;4094101;28;20291;-56
2022/01/30 10:04:15;;;;;;;12.90;3.72;;;;;;;6.11;66.69;99937.09;4097154;28;20211;-55
2022/01/30 10:06:21;;;;;;;10.35;3.90;;;;;;;6.15;67.15;99937.56;4099950;28;20600;-56
2022/01/30 10:08:28;;;;;;;14.40;3.95;;;;;;;6.11;66.69;99944.41;4093793;28;20258;-57
2022/01/30 10:10:30;;;;;;;15.40;4.03;;;;;;;6.11;66.69;99936.25;4108772;28;20199;-57
2022/01/30 10:12:33;;;;;;;8.57;2.90;;;;;;;6.10;66.72;99934.56;4097135;28;20226;-57
2022/01/30 10:14:50;;;;;;;16.75;3.70;;;;;;;6.12;66.80;99929.78;4106428;28;20207;-57
2022/01/30 10:16:52;;;;;;;22.35;4.30;;;;;;;6.18;67.48;99923.59;4109160;28;20462;-58
2022/01/30 10:18:54;;;;;;;12.60;3.78;;;;;;;6.24;67.21;99925.56;4112062;28;20410;-56
2022/01/30 10:20:56;;;;;;;13.38;3.63;;;;;;;6.31;66.45;99921.06;4109989;28;20290;-57
2022/01/30 10:22:59;;;;;;;15.15;3.55;;;;;;;6.21;66.43;99912.34;4093817;29;20254;-57
2022/01/30 10:25:25;;;;;;;13.18;4.90;;;;;;;6.07;65.49;99907.75;4109265;28;20235;-57
2022/01/30 10:27:28;;;;;;;13.48;3.65;;;;;;;6.29;66.83;99909.53;4112279;28;20657;-55
2022/01/30 10:29:31;;;;;;;14.07;3.83;;;;;;;6.92;65.09;99909.69;4110839;28;20198;-56
2022/01/30 10:31:34;;;;;;;10.10;3.42;;;;;;;7.26;62.76;99907.09;4098139;28;20482;-56
2022/01/30 10:33:45;;;;;;;12.75;4.28;;;;;;;7.16;63.57;99906.59;4108886;28;20232;-56
2022/01/30 10:35:51;;;;;;;6.88;3.33;;;;;;;7.13;64.47;99906.97;4096073;28;20281;-56
2022/01/30 10:37:53;;;;;;;7.95;2.97;;;;;;;6.94;63.69;99902.16;4109945;28;20266;-58
2022/01/30 10:40:11;;;;;;;14.05;3.33;;;;;;;7.17;64.82;99902.81;4110847;28;20206;-56